createdAt,value
2018-11-21T00:01:46.098Z,101411.02
2018-11-21T00:04:51.243Z,101406.75
2018-11-21T00:07:56.381Z,101408.45
2018-11-21T00:11:01.536Z,101406.77
2018-11-21T00:14:07.313Z,101412.73
2018-11-21T00:17:12.411Z,101410.59
2018-11-21T00:20:17.541Z,101409.76
2018-11-21T00:23:22.648Z,101408.94
2018-11-21T00:26:28.321Z,101405.96
2018-11-21T00:29:33.427Z,101405.54
2018-11-21T00:32:38.547Z,101411.45
2018-11-21T00:35:43.735Z,101411.83
2018-11-21T00:38:48.886Z,101403.38
2018-11-21T00:41:54.234Z,101408.89
2018-11-21T00:44:59.339Z,101401.28
2018-11-21T00:48:04.423Z,101414.38
2018-11-21T00:51:09.835Z,101414.38
2018-11-21T00:54:15.005Z,101417.80
2018-11-21T00:57:20.112Z,101415.27
2018-11-21T01:00:25.235Z,101416.93
2018-11-21T01:03:30.347Z,101428.34
2018-11-21T01:06:35.458Z,101420.31
2018-11-21T01:09:40.549Z,101420.75
2018-11-21T01:12:45.687Z,101419.03
2018-11-21T01:15:50.807Z,101422.42
2018-11-21T01:18:55.923Z,101422.46
2018-11-21T01:22:01.040Z,101429.65
2018-11-21T01:25:06.805Z,101437.20
2018-11-21T01:28:11.935Z,101427.47
2018-11-21T01:31:17.021Z,101432.55
2018-11-21T01:34:22.126Z,101437.61
2018-11-21T01:37:27.246Z,101428.77
2018-11-21T01:40:32.340Z,101430.88
2018-11-21T01:43:37.447Z,101436.00
2018-11-21T01:46:42.548Z,101431.33
2018-11-21T01:49:47.733Z,101434.73
2018-11-21T01:53:11.831Z,101433.44
2018-11-21T01:56:16.922Z,101433.03
2018-11-21T01:59:22.034Z,101429.65
2018-11-21T02:02:27.126Z,101433.05
2018-11-21T02:05:32.281Z,101442.35
2018-11-21T02:08:56.363Z,101440.20
2018-11-21T02:12:01.475Z,101434.31
2018-11-21T02:15:06.815Z,101444.04
2018-11-21T02:18:11.897Z,101443.17
2018-11-21T02:21:17.044Z,101438.54
2018-11-21T02:24:22.149Z,101436.45
2018-11-21T02:27:27.264Z,101441.48
2018-11-21T02:30:32.388Z,101430.08
2018-11-21T02:33:37.486Z,101430.48
2018-11-21T02:36:42.580Z,101435.15
2018-11-21T02:39:47.672Z,101433.87
2018-11-21T02:42:53.032Z,101433.88
2018-11-21T02:45:58.144Z,101427.97
2018-11-21T02:49:03.274Z,101433.02
2018-11-21T02:52:08.393Z,101426.25
2018-11-21T02:55:13.482Z,101426.68
2018-11-21T02:58:18.580Z,101433.02
2018-11-21T03:01:23.683Z,101436.01
2018-11-21T03:04:29.071Z,101436.42
2018-11-21T03:07:54.379Z,101431.78
2018-11-21T03:10:59.491Z,101444.48
2018-11-21T03:14:04.585Z,101436.42
2018-11-21T03:17:09.694Z,101436.03
2018-11-21T03:20:14.912Z,101440.66
2018-11-21T03:23:20.001Z,101447.89
2018-11-21T03:26:25.173Z,101444.48
2018-11-21T03:29:30.223Z,101450.84
2018-11-21T03:32:35.316Z,101449.56
2018-11-21T03:35:40.433Z,101450.00
2018-11-21T03:38:45.531Z,101452.50
2018-11-21T03:41:50.647Z,101456.78
2018-11-21T03:44:55.934Z,101455.50
2018-11-21T03:48:20.016Z,101461.44
2018-11-21T03:51:25.139Z,101465.22
2018-11-21T03:54:30.246Z,101467.79
2018-11-21T03:57:35.525Z,101475.81
2018-11-21T04:00:40.653Z,101479.60
2018-11-21T04:03:45.763Z,101476.63
2018-11-21T04:07:09.932Z,101474.96
2018-11-21T04:10:15.048Z,101478.77
2018-11-21T04:13:20.164Z,101482.13
2018-11-21T04:16:25.263Z,101483.44
2018-11-21T04:19:30.395Z,101490.18
2018-11-21T04:22:35.594Z,101486.39
2018-11-21T04:25:40.734Z,101488.09
2018-11-21T04:28:46.065Z,101492.30
2018-11-21T04:31:51.162Z,101486.03
2018-11-21T04:34:56.357Z,101489.80
2018-11-21T04:38:01.479Z,101488.94
2018-11-21T04:41:06.968Z,101495.74
2018-11-21T04:44:12.092Z,101508.86
2018-11-21T04:47:17.174Z,101499.17
2018-11-21T04:50:22.309Z,101506.72
2018-11-21T04:53:28.126Z,101503.77
2018-11-21T04:56:32.920Z,101507.63
2018-11-21T04:59:38.023Z,101512.25
2018-11-21T05:02:43.191Z,101512.69
2018-11-21T05:05:48.272Z,101516.93
2018-11-21T05:08:53.389Z,101520.32
2018-11-21T05:11:58.565Z,101513.54
2018-11-21T05:15:03.681Z,101516.50
2018-11-21T05:18:08.811Z,101517.37
2018-11-21T05:21:13.926Z,101524.95
2018-11-21T05:24:19.025Z,101524.95
2018-11-21T05:27:24.128Z,101530.47
2018-11-21T05:30:29.498Z,101538.91
2018-11-21T05:33:34.584Z,101537.69
2018-11-21T05:36:58.657Z,101533.44
2018-11-21T05:40:03.797Z,101538.52
2018-11-21T05:43:08.927Z,101540.64
2018-11-21T05:46:14.160Z,101540.22
2018-11-21T05:49:19.188Z,101543.59
2018-11-21T05:52:24.305Z,101536.87
2018-11-21T05:55:29.431Z,101544.02
2018-11-21T05:58:34.878Z,101552.90
2018-11-21T06:01:40.029Z,101555.86
2018-11-21T06:04:45.147Z,101562.20
2018-11-21T06:07:50.258Z,101566.86
2018-11-21T06:10:55.423Z,101569.81
2018-11-21T06:14:00.840Z,101573.20
2018-11-21T06:17:06.189Z,101573.63
2018-11-21T06:20:13.276Z,101580.38
2018-11-21T06:23:18.387Z,101588.42
2018-11-21T06:26:23.513Z,101598.55
2018-11-21T06:29:28.746Z,101591.39
2018-11-21T06:32:33.864Z,101596.04
2018-11-21T06:35:38.958Z,101603.21
2018-11-21T06:38:44.303Z,101604.92
2018-11-21T06:41:49.464Z,101615.48
2018-11-21T06:44:54.580Z,101622.22
2018-11-21T06:47:59.686Z,101625.62
2018-11-21T06:51:04.835Z,101622.66
2018-11-21T06:54:12.283Z,101630.24
2018-11-21T06:57:17.544Z,101633.63
2018-11-21T07:00:22.651Z,101636.59
2018-11-21T07:03:27.739Z,101642.94
2018-11-21T07:06:32.847Z,101649.27
2018-11-21T07:09:37.949Z,101656.84
2018-11-21T07:12:43.744Z,101665.72
2018-11-21T07:15:48.835Z,101661.07
2018-11-21T07:18:53.983Z,101672.02
2018-11-21T07:21:59.092Z,101677.94
2018-11-21T07:25:04.933Z,101674.98
2018-11-21T07:28:13.128Z,101682.58
2018-11-21T07:31:15.431Z,101678.75
2018-11-21T07:34:21.611Z,101693.10
2018-11-21T07:37:25.705Z,101691.84
2018-11-21T07:44:09.122Z,101692.68
2018-11-21T07:47:14.613Z,101701.09
2018-11-21T07:50:21.081Z,101705.34
2018-11-21T07:53:26.223Z,101701.92
2018-11-21T07:57:09.377Z,101698.98
2018-11-21T08:01:11.242Z,101711.20
2018-11-21T08:04:24.336Z,101704.41
2018-11-21T08:07:48.149Z,101713.32
2018-11-21T08:11:12.735Z,101717.95
2018-11-21T08:14:36.538Z,101731.89
2018-11-21T08:18:00.361Z,101728.09
2018-11-21T08:21:24.263Z,101739.87
2018-11-21T08:24:48.108Z,101737.80
2018-11-21T08:28:11.920Z,101739.50
2018-11-21T08:31:17.040Z,101747.56
2018-11-21T08:34:22.119Z,101746.72
2018-11-21T08:37:27.224Z,101745.87
2018-11-21T08:40:32.502Z,101751.38
2018-11-21T08:43:37.585Z,101753.06
2018-11-21T08:46:42.696Z,101763.23
2018-11-21T08:49:47.804Z,101761.16
2018-11-21T08:52:52.900Z,101760.31
2018-11-21T08:55:58.007Z,101756.13
2018-11-21T08:59:03.104Z,101759.52
2018-11-21T09:02:08.193Z,101762.47
2018-11-21T09:05:13.557Z,101767.11
2018-11-21T09:08:18.652Z,101767.11
2018-11-21T09:11:23.784Z,101772.19
2018-11-21T09:14:29.181Z,101768.41
2018-11-21T09:17:34.271Z,101770.95
2018-11-21T09:20:39.362Z,101773.06
2018-11-21T09:23:44.487Z,101773.48
2018-11-21T09:26:49.874Z,101779.02
2018-11-21T09:29:54.977Z,101775.20
2018-11-21T09:33:00.700Z,101780.28
2018-11-21T09:36:05.825Z,101778.16
2018-11-21T09:39:12.634Z,101780.27
2018-11-21T09:42:17.830Z,101779.42
2018-11-21T09:45:23.748Z,101784.11
2018-11-21T09:48:28.906Z,101786.22
2018-11-21T09:51:33.997Z,101788.33
2018-11-21T09:54:39.355Z,101783.69
2018-11-21T09:57:44.542Z,101782.41
2018-11-21T10:01:27.618Z,101785.40
2018-11-21T10:04:32.747Z,101791.31
2018-11-21T10:07:42.500Z,101795.55
2018-11-21T10:10:47.625Z,101801.03
2018-11-21T10:13:52.735Z,101803.17
2018-11-21T10:16:57.858Z,101806.95
2018-11-21T10:20:02.977Z,101806.95
2018-11-21T10:23:08.087Z,101805.26
2018-11-21T10:26:13.200Z,101807.39
2018-11-21T10:29:18.323Z,101808.23
2018-11-21T10:32:23.426Z,101806.57
2018-11-21T10:35:28.571Z,101806.97
2018-11-21T10:38:33.676Z,101802.34
2018-11-21T10:41:38.825Z,101811.23
2018-11-21T10:44:43.920Z,101804.45
2018-11-21T10:47:49.055Z,101805.72
2018-11-21T10:50:54.169Z,101805.72
2018-11-21T10:53:59.246Z,101809.95
2018-11-21T10:57:23.317Z,101811.23
2018-11-21T11:01:06.118Z,101814.20
2018-11-21T11:04:48.913Z,101812.91
2018-11-21T11:08:12.814Z,101814.60
2018-11-21T11:11:36.595Z,101810.81
2018-11-21T11:15:00.396Z,101800.23
2018-11-21T11:18:43.183Z,101803.19
2018-11-21T11:22:25.977Z,101809.96
2018-11-21T11:26:01.642Z,101818.00
2018-11-21T11:29:25.508Z,101812.09
2018-11-21T11:33:08.279Z,101811.24
2018-11-21T11:36:32.071Z,101815.89
2018-11-21T11:39:55.874Z,101815.45
2018-11-21T11:43:19.684Z,101809.96
2018-11-21T11:47:02.475Z,101815.47
2018-11-21T11:50:27.045Z,101816.73
2018-11-21T11:53:51.036Z,101816.30
2018-11-21T11:57:33.813Z,101815.48
2018-11-21T12:01:16.599Z,101825.20
2018-11-21T12:04:59.373Z,101830.27
2018-11-21T12:08:42.168Z,101822.67
2018-11-21T12:12:24.948Z,101826.87
2018-11-21T12:16:07.748Z,101831.55
2018-11-21T12:19:31.538Z,101826.47
2018-11-21T12:22:55.338Z,101827.31
2018-11-21T12:26:38.143Z,101831.55
2018-11-21T12:30:01.940Z,101826.47
2018-11-21T12:33:44.756Z,101832.81
2018-11-21T12:37:08.560Z,101834.07
2018-11-21T12:40:32.378Z,101837.05
2018-11-21T12:44:15.168Z,101831.11
2018-11-21T12:47:38.966Z,101834.52
2018-11-21T12:51:21.759Z,101830.27
2018-11-21T12:54:45.547Z,101829.84
2018-11-21T12:58:15.725Z,101820.11
2018-11-21T13:01:58.506Z,101823.09
2018-11-21T13:05:22.364Z,101820.95
2018-11-21T13:08:46.162Z,101815.91
2018-11-21T13:12:28.979Z,101831.56
2018-11-21T13:19:42.035Z,101826.90
2018-11-21T13:23:24.825Z,101830.29
2018-11-21T13:27:07.575Z,101828.15
2018-11-21T13:33:48.810Z,101830.70
2018-11-21T13:37:12.625Z,101828.17
2018-11-21T13:40:55.415Z,101828.59
2018-11-21T13:44:19.216Z,101826.45
2018-11-21T13:47:57.334Z,101824.34
2018-11-21T13:51:40.130Z,101824.77
2018-11-21T13:55:04.806Z,101832.41
2018-11-21T13:58:28.872Z,101829.84
2018-11-21T14:01:33.942Z,101820.95
2018-11-21T14:04:39.003Z,101822.65
2018-11-21T14:08:03.083Z,101820.97
2018-11-21T14:11:08.155Z,101816.31
2018-11-21T14:14:13.227Z,101818.84
2018-11-21T14:17:18.293Z,101826.90
2018-11-21T14:20:42.343Z,101827.31
2018-11-21T14:24:06.414Z,101820.98
2018-11-21T14:27:11.499Z,101825.20
2018-11-21T14:30:36.021Z,101823.49
2018-11-21T14:33:41.484Z,101830.27
2018-11-21T14:36:46.592Z,101827.31
2018-11-21T14:39:51.734Z,101835.34
2018-11-21T14:42:56.807Z,101832.39
2018-11-21T14:46:01.889Z,101824.77
2018-11-21T14:49:07.708Z,101837.46
2018-11-21T14:52:31.758Z,101836.20
2018-11-21T14:55:36.849Z,101832.39
2018-11-21T14:58:41.909Z,101839.16
2018-11-21T15:01:46.991Z,101848.47
2018-11-21T15:04:52.049Z,101845.48
2018-11-21T15:08:16.124Z,101853.95
2018-11-21T15:11:21.195Z,101850.56
2018-11-21T15:14:26.254Z,101848.88
2018-11-21T15:17:31.324Z,101852.68
2018-11-21T15:20:55.397Z,101857.76
2018-11-21T15:24:00.472Z,101861.56
2018-11-21T15:27:24.529Z,101862.80
2018-11-21T15:30:30.393Z,101859.03
2018-11-21T15:33:35.459Z,101858.16
2018-11-21T15:36:59.530Z,101861.53
2018-11-21T15:40:24.784Z,101866.19
2018-11-21T15:43:29.840Z,101874.66
2018-11-21T15:46:34.917Z,101876.34
2018-11-21T15:49:39.986Z,101874.66
2018-11-21T15:52:45.524Z,101880.57
2018-11-21T15:55:50.113Z,101881.84
2018-11-21T15:58:55.235Z,101881.41
2018-11-21T16:02:19.298Z,101880.99
2018-11-21T16:05:24.718Z,101875.47
2018-11-21T16:08:29.783Z,101884.77
2018-11-21T16:11:53.899Z,101883.92
2018-11-21T16:14:59.033Z,101883.50
2018-11-21T16:18:04.300Z,101885.19
2018-11-21T16:21:09.490Z,101881.81
2018-11-21T16:24:14.628Z,101886.46
2018-11-21T16:27:19.760Z,101890.27
2018-11-21T16:30:25.970Z,101887.70
2018-11-21T16:33:31.110Z,101891.53
2018-11-21T16:36:36.237Z,101899.99
2018-11-21T16:39:41.393Z,101900.38
2018-11-21T16:42:46.827Z,101903.34
2018-11-21T16:45:53.942Z,101905.45
2018-11-21T16:48:59.161Z,101914.75
2018-11-21T16:52:04.352Z,101915.17
2018-11-21T16:55:11.385Z,101913.91
2018-11-21T17:01:32.595Z,101911.36
2018-11-21T17:04:37.690Z,101913.02
2018-11-21T17:10:59.741Z,101913.05
2018-11-21T17:14:04.822Z,101924.47
2018-11-21T17:17:09.995Z,101921.94
2018-11-21T17:20:36.130Z,101928.27
2018-11-21T17:23:41.253Z,101932.50
2018-11-21T17:26:46.334Z,101932.88
2018-11-21T17:30:10.847Z,101938.80
2018-11-21T17:33:15.949Z,101938.80
2018-11-21T17:36:21.087Z,101939.23
2018-11-21T17:39:26.116Z,101943.88
2018-11-21T17:42:31.210Z,101949.80
2018-11-21T17:45:36.303Z,101954.86
2018-11-21T17:48:41.396Z,101951.48
2018-11-21T17:51:46.469Z,101954.43
2018-11-21T17:54:51.573Z,101950.59
2018-11-21T17:57:56.661Z,101951.86
2018-11-21T18:01:01.781Z,101951.43
2018-11-21T18:04:07.026Z,101949.73
2018-11-21T18:07:12.030Z,101949.73
2018-11-21T18:10:21.864Z,101960.67
2018-11-21T18:13:26.517Z,101961.55
2018-11-21T18:16:31.602Z,101954.79
2018-11-21T18:19:36.707Z,101965.37
2018-11-21T18:22:42.405Z,101967.48
2018-11-21T18:25:47.958Z,101965.80
2018-11-21T18:28:53.060Z,101971.70
2018-11-21T18:31:58.150Z,101975.94
2018-11-21T18:35:03.367Z,101978.89
2018-11-21T18:38:08.468Z,101987.75
2018-11-21T18:41:13.571Z,101990.67
2018-11-21T18:44:18.941Z,101989.45
2018-11-21T18:47:24.021Z,101990.28
2018-11-21T18:50:29.125Z,101999.17
2018-11-21T18:57:36.424Z,101997.89
2018-11-21T19:00:42.654Z,101998.33
2018-11-21T19:03:47.749Z,101997.84
2018-11-21T19:06:52.836Z,101999.54
2018-11-21T19:09:57.924Z,102003.77
2018-11-21T19:13:03.019Z,102002.97
2018-11-21T19:16:08.099Z,102004.59
2018-11-21T19:19:13.218Z,101997.83
2018-11-21T19:22:26.097Z,101999.09
2018-11-21T19:25:31.682Z,102005.08
2018-11-21T19:28:36.819Z,102007.99
2018-11-21T19:31:41.996Z,101996.58
2018-11-21T19:34:47.091Z,102009.23
2018-11-21T19:37:52.180Z,102000.37
2018-11-21T19:40:57.261Z,102000.80
2018-11-21T19:44:02.361Z,102014.67
2018-11-21T19:47:07.676Z,102004.17
2018-11-21T19:50:14.499Z,102008.34
2018-11-21T19:53:19.574Z,102009.23
2018-11-21T19:56:24.958Z,102015.09
2018-11-21T19:59:30.084Z,102013.47
2018-11-21T20:02:35.241Z,102016.42
2018-11-21T20:05:40.313Z,102010.86
2018-11-21T20:08:45.386Z,102014.30
2018-11-21T20:11:50.488Z,102017.70
2018-11-21T20:14:55.636Z,102021.06
2018-11-21T20:18:02.057Z,102017.64
2018-11-21T20:21:07.221Z,102025.70
2018-11-21T20:24:12.314Z,102025.72
2018-11-21T20:27:17.491Z,102015.14
2018-11-21T20:30:24.136Z,102012.14
2018-11-21T20:33:29.225Z,102016.41
2018-11-21T20:36:34.374Z,102013.84
2018-11-21T20:39:39.528Z,102016.78
2018-11-21T20:42:45.233Z,102015.11
2018-11-21T20:45:50.327Z,102010.88
2018-11-21T20:48:55.429Z,102017.27
2018-11-21T20:52:00.807Z,102017.64
2018-11-21T20:55:06.518Z,102020.63
2018-11-21T20:58:11.636Z,102015.99
2018-11-21T21:01:16.726Z,102015.56
2018-11-21T21:04:22.106Z,102012.98
2018-11-21T21:07:27.190Z,102009.59
2018-11-21T21:10:33.855Z,102011.34
2018-11-21T21:13:38.947Z,102007.90
2018-11-21T21:16:44.034Z,102002.83
2018-11-21T21:19:49.138Z,102006.69
2018-11-21T21:22:55.849Z,102010.92
2018-11-21T21:26:00.943Z,102010.44
2018-11-21T21:29:06.533Z,102007.91
2018-11-21T21:32:11.622Z,102012.55
2018-11-21T21:35:17.742Z,102012.05
2018-11-21T21:38:22.838Z,102009.57
2018-11-21T21:41:28.005Z,102008.30
2018-11-21T21:44:33.110Z,102007.89
2018-11-21T21:47:41.655Z,102008.32
2018-11-21T21:50:43.368Z,102007.47
2018-11-21T21:53:48.490Z,101996.50
2018-11-21T21:56:53.583Z,102001.56
2018-11-21T21:59:58.675Z,101999.87
2018-11-21T22:03:03.767Z,102008.73
2018-11-21T22:06:08.875Z,102006.21
2018-11-21T22:09:14.299Z,102005.77
2018-11-21T22:12:19.404Z,102009.16
2018-11-21T22:15:32.366Z,102008.31
2018-11-21T22:18:37.463Z,102008.67
2018-11-21T22:21:42.568Z,102012.53
2018-11-21T22:24:47.658Z,102013.80
2018-11-21T22:27:52.733Z,102008.33
2018-11-21T22:30:57.820Z,102007.48
2018-11-21T22:34:02.900Z,102009.16
2018-11-21T22:37:07.983Z,102007.90
2018-11-21T22:40:14.824Z,102001.14
2018-11-21T22:43:19.919Z,102000.72
2018-11-21T22:46:24.989Z,102005.80
2018-11-21T22:49:30.086Z,102001.57
2018-11-21T22:52:35.176Z,102008.30
2018-11-21T22:55:40.262Z,102005.35
2018-11-21T22:58:45.372Z,102008.75
2018-11-21T23:01:50.450Z,102010.01
2018-11-21T23:05:14.521Z,102008.30
2018-11-21T23:08:19.609Z,102013.37
2018-11-21T23:11:24.683Z,102011.28
2018-11-21T23:14:29.773Z,102009.59
2018-11-21T23:17:34.871Z,102011.64
2018-11-21T23:20:39.965Z,102006.20
2018-11-21T23:23:45.044Z,102004.94
2018-11-21T23:26:50.141Z,102008.75
2018-11-21T23:29:55.221Z,102007.46
2018-11-21T23:33:00.315Z,102004.89
2018-11-21T23:36:05.421Z,102007.84
2018-11-21T23:39:10.825Z,102006.99
2018-11-21T23:42:15.939Z,102015.92
2018-11-21T23:45:20.998Z,102010.38
2018-11-21T23:48:26.086Z,102012.11
2018-11-21T23:51:31.152Z,102011.27
2018-11-21T23:54:36.236Z,102004.94
2018-11-21T23:57:41.329Z,102004.52
